createdAt,value
2023-05-09T00:01:46.695Z,16.38
2023-05-09T00:04:13.904Z,16.36
2023-05-09T00:06:41.088Z,16.38
2023-05-09T00:09:08.230Z,16.38
2023-05-09T00:11:35.263Z,16.38
2023-05-09T00:14:03.419Z,16.34
2023-05-09T00:16:33.121Z,16.26
2023-05-09T00:19:00.396Z,16.18
2023-05-09T00:21:28.361Z,16.15
2023-05-09T00:23:55.890Z,16.15
2023-05-09T00:26:23.672Z,16.15
2023-05-09T00:28:50.760Z,16.16
2023-05-09T00:31:18.348Z,16.23
2023-05-09T00:33:45.413Z,16.27
2023-05-09T00:36:12.737Z,16.28
2023-05-09T00:38:39.816Z,16.25
2023-05-09T00:41:07.157Z,16.15
2023-05-09T00:43:34.244Z,16.12
2023-05-09T00:46:01.634Z,16.10
2023-05-09T00:48:28.921Z,16.06
2023-05-09T00:50:56.615Z,16.05
2023-05-09T00:53:25.058Z,16.03
2023-05-09T00:55:52.879Z,16.03
2023-05-09T00:58:20.084Z,16.00
2023-05-09T01:00:48.193Z,16.02
2023-05-09T01:03:15.818Z,16.02
2023-05-09T01:06:07.087Z,16.06
2023-05-09T01:08:45.307Z,16.04
2023-05-09T01:11:33.508Z,16.06
2023-05-09T01:14:20.649Z,16.07
2023-05-09T01:16:56.536Z,16.04
2023-05-09T01:19:54.339Z,15.99
2023-05-09T01:22:25.763Z,15.97
2023-05-09T01:25:16.483Z,15.97
2023-05-09T01:27:58.664Z,15.98
2023-05-09T01:30:27.666Z,15.97
2023-05-09T01:33:00.351Z,15.98
2023-05-09T01:35:30.409Z,16.00
2023-05-09T01:37:59.885Z,15.98
2023-05-09T01:40:30.796Z,16.03
2023-05-09T01:43:07.250Z,16.02
2023-05-09T01:45:36.311Z,15.99
2023-05-09T01:48:05.822Z,16.01
2023-05-09T01:50:34.317Z,16.01
2023-05-09T01:53:02.109Z,16.01
2023-05-09T01:55:34.574Z,16.01
2023-05-09T01:58:05.323Z,15.98
2023-05-09T02:00:34.664Z,15.95
2023-05-09T02:03:04.025Z,15.92
2023-05-09T02:05:33.364Z,15.87
2023-05-09T02:08:00.575Z,15.86
2023-05-09T02:10:29.216Z,15.86
2023-05-09T02:12:57.691Z,15.84
2023-05-09T02:15:26.096Z,15.82
2023-05-09T02:17:53.415Z,15.79
2023-05-09T02:20:20.634Z,15.73
2023-05-09T02:22:48.245Z,15.70
2023-05-09T02:25:16.133Z,15.66
2023-05-09T02:27:45.742Z,15.67
2023-05-09T02:30:18.873Z,15.67
2023-05-09T02:32:49.052Z,15.65
2023-05-09T02:35:18.611Z,15.62
2023-05-09T02:37:46.396Z,15.60
2023-05-09T02:40:14.624Z,15.58
2023-05-09T02:42:42.011Z,15.54
2023-05-09T02:45:10.785Z,15.46
2023-05-09T02:47:38.650Z,15.45
2023-05-09T02:50:06.995Z,15.42
2023-05-09T02:52:36.150Z,15.41
2023-05-09T02:55:03.826Z,15.41
2023-05-09T02:57:34.050Z,15.42
2023-05-09T03:00:01.282Z,15.43
2023-05-09T03:02:29.425Z,15.46
2023-05-09T03:04:57.743Z,15.49
2023-05-09T03:07:24.776Z,15.48
2023-05-09T03:09:51.900Z,15.48
2023-05-09T03:12:18.954Z,15.43
2023-05-09T03:14:46.224Z,15.38
2023-05-09T03:17:17.373Z,15.43
2023-05-09T03:19:45.008Z,15.43
2023-05-09T03:22:12.057Z,15.45
2023-05-09T03:24:45.530Z,15.44
2023-05-09T03:27:13.011Z,15.39
2023-05-09T03:29:39.979Z,15.31
2023-05-09T03:32:07.205Z,15.35
2023-05-09T03:34:34.358Z,15.37
2023-05-09T03:37:02.160Z,15.41
2023-05-09T03:39:30.715Z,15.36
2023-05-09T03:41:58.071Z,15.30
2023-05-09T03:44:25.787Z,15.32
2023-05-09T03:46:53.364Z,15.35
2023-05-09T03:49:20.820Z,15.46
2023-05-09T03:51:51.751Z,15.48
2023-05-09T03:54:18.875Z,15.56
2023-05-09T03:56:47.394Z,15.60
2023-05-09T03:59:14.509Z,15.61
2023-05-09T04:15:20.286Z,15.48
2023-05-09T04:17:47.665Z,15.43
2023-05-09T04:20:16.133Z,15.48
2023-05-09T04:22:46.074Z,15.49
2023-05-09T04:25:16.316Z,15.53
2023-05-09T04:27:44.000Z,15.53
2023-05-09T04:30:11.605Z,15.54
2023-05-09T04:32:39.143Z,15.50
2023-05-09T04:35:08.346Z,15.46
2023-05-09T04:37:40.132Z,15.46
2023-05-09T04:40:09.187Z,15.41
2023-05-09T04:42:45.553Z,15.42
2023-05-09T04:45:13.181Z,15.42
2023-05-09T04:47:40.738Z,15.45
2023-05-09T04:50:08.573Z,15.44
2023-05-09T04:52:36.131Z,15.44
2023-05-09T04:55:03.754Z,15.49
2023-05-09T04:57:36.225Z,15.55
2023-05-09T05:00:07.214Z,15.58
2023-05-09T05:02:36.222Z,15.63
2023-05-09T05:05:11.437Z,15.66
2023-05-09T05:07:42.517Z,15.68
2023-05-09T05:10:11.890Z,15.64
2023-05-09T05:12:41.364Z,15.64
2023-05-09T05:15:12.242Z,15.66
2023-05-09T05:17:40.428Z,15.70
2023-05-09T05:20:10.888Z,15.70
2023-05-09T05:22:42.836Z,15.73
2023-05-09T05:25:10.420Z,15.79
2023-05-09T05:27:39.246Z,15.84
2023-05-09T05:30:08.376Z,15.91
2023-05-09T05:32:36.436Z,15.92
2023-05-09T05:35:05.203Z,15.95
2023-05-09T05:37:35.579Z,16.05
2023-05-09T05:40:03.060Z,16.08
2023-05-09T05:42:31.104Z,16.08
2023-05-09T05:45:04.401Z,16.08
2023-05-09T05:47:37.342Z,16.13
2023-05-09T05:50:12.004Z,16.19
2023-05-09T05:52:40.712Z,16.16
2023-05-09T05:55:10.737Z,16.18
2023-05-09T05:57:39.265Z,16.15
2023-05-09T06:00:12.032Z,16.18
2023-05-09T06:02:48.071Z,16.14
2023-05-09T06:05:35.665Z,16.11
2023-05-09T06:08:03.151Z,16.14
2023-05-09T06:10:32.192Z,16.15
2023-05-09T06:13:12.345Z,16.15
2023-05-09T06:15:43.730Z,16.23
2023-05-09T06:18:11.280Z,16.29
2023-05-09T06:20:38.437Z,16.37
2023-05-09T06:23:05.583Z,16.40
2023-05-09T06:25:32.618Z,16.47
2023-05-09T06:27:59.681Z,16.51
2023-05-09T06:30:27.277Z,16.55
2023-05-09T06:32:55.433Z,16.62
2023-05-09T06:35:22.752Z,16.67
2023-05-09T06:37:50.452Z,16.74
2023-05-09T06:40:17.784Z,16.80
2023-05-09T06:42:45.205Z,16.83
2023-05-09T06:45:12.640Z,16.92
2023-05-09T06:47:39.767Z,16.93
2023-05-09T06:50:07.720Z,16.96
2023-05-09T06:52:35.072Z,17.03
2023-05-09T06:55:02.266Z,17.09
2023-05-09T06:57:29.407Z,17.14
2023-05-09T06:59:56.632Z,17.21
2023-05-09T07:02:23.635Z,17.24
2023-05-09T07:04:52.175Z,17.26
2023-05-09T07:07:19.252Z,17.29
2023-05-09T07:09:46.563Z,17.34
2023-05-09T07:12:13.860Z,17.34
2023-05-09T07:14:42.073Z,17.35
2023-05-09T07:17:22.048Z,17.34
2023-05-09T07:19:51.520Z,17.34
2023-05-09T07:22:18.717Z,17.42
2023-05-09T07:24:46.707Z,17.54
2023-05-09T07:27:14.301Z,17.56
2023-05-09T07:29:41.296Z,17.62
2023-05-09T07:32:09.993Z,17.71
2023-05-09T07:34:37.138Z,17.76
2023-05-09T07:37:04.435Z,17.78
2023-05-09T07:39:31.512Z,17.73
2023-05-09T07:41:58.798Z,17.73
2023-05-09T07:44:25.976Z,17.76
2023-05-09T07:46:56.542Z,17.76
2023-05-09T07:49:23.622Z,17.80
2023-05-09T07:51:50.704Z,17.87
2023-05-09T07:54:17.823Z,17.92
2023-05-09T07:56:44.793Z,17.98
2023-05-09T07:59:12.463Z,18.01
2023-05-09T08:01:39.694Z,17.91
2023-05-09T08:04:09.163Z,17.91
2023-05-09T08:06:36.982Z,17.86
2023-05-09T08:09:29.657Z,17.94
2023-05-09T08:12:22.715Z,18.14
2023-05-09T08:14:56.743Z,18.19
2023-05-09T08:17:32.639Z,18.16
2023-05-09T08:19:59.726Z,18.22
2023-05-09T08:22:26.815Z,18.33
2023-05-09T08:24:53.845Z,18.28
2023-05-09T08:27:20.879Z,18.43
2023-05-09T08:29:48.264Z,18.52
2023-05-09T08:32:15.500Z,18.65
2023-05-09T08:34:43.768Z,18.92
2023-05-09T08:37:12.277Z,18.93
2023-05-09T08:39:41.710Z,19.17
2023-05-09T08:42:10.043Z,19.33
2023-05-09T08:44:37.433Z,19.43
2023-05-09T08:47:05.234Z,19.73
2023-05-09T08:49:33.600Z,20.08
2023-05-09T08:52:01.576Z,19.90
2023-05-09T08:54:30.316Z,19.98
2023-05-09T08:57:01.856Z,20.15
2023-05-09T08:59:30.209Z,20.04
2023-05-09T09:02:00.280Z,20.19
2023-05-09T09:04:27.933Z,20.07
2023-05-09T09:06:55.953Z,19.89
2023-05-09T09:09:24.255Z,19.81
2023-05-09T09:11:53.350Z,19.95
2023-05-09T09:14:27.857Z,19.99
2023-05-09T09:16:56.244Z,20.14
2023-05-09T09:19:29.670Z,19.85
2023-05-09T09:21:59.867Z,20.00
2023-05-09T09:24:26.932Z,19.88
2023-05-09T09:26:54.032Z,19.86
2023-05-09T09:29:21.247Z,19.81
2023-05-09T09:31:52.654Z,19.83
2023-05-09T09:34:22.574Z,19.73
2023-05-09T09:36:50.739Z,19.59
2023-05-09T09:39:17.917Z,19.53
2023-05-09T09:41:45.333Z,19.42
2023-05-09T09:44:23.345Z,19.36
2023-05-09T09:46:52.568Z,19.69
2023-05-09T09:49:22.073Z,19.77
2023-05-09T09:51:57.290Z,20.13
2023-05-09T09:54:28.124Z,20.29
2023-05-09T09:56:56.771Z,20.40
2023-05-09T09:59:25.976Z,20.60
2023-05-09T10:02:04.934Z,20.64
2023-05-09T10:04:36.125Z,20.46
2023-05-09T10:07:06.499Z,20.05
2023-05-09T10:09:35.359Z,19.85
2023-05-09T10:12:04.835Z,19.87
2023-05-09T10:14:35.617Z,19.76
2023-05-09T10:17:05.056Z,19.67
2023-05-09T10:19:33.121Z,19.69
2023-05-09T10:22:05.741Z,19.71
2023-05-09T10:25:06.808Z,19.44
2023-05-09T10:27:36.565Z,19.31
2023-05-09T10:30:17.203Z,19.44
2023-05-09T10:33:03.821Z,19.55
2023-05-09T10:35:36.752Z,19.73
2023-05-09T10:38:04.655Z,19.80
2023-05-09T10:40:34.420Z,19.80
2023-05-09T10:43:01.469Z,19.76
2023-05-09T10:45:29.024Z,19.37
2023-05-09T10:47:57.116Z,19.08
2023-05-09T10:50:25.311Z,18.97
2023-05-09T10:53:08.776Z,19.06
2023-05-09T10:55:50.380Z,18.93
2023-05-09T10:58:28.933Z,18.67
2023-05-09T11:00:58.555Z,18.63
2023-05-09T11:03:27.462Z,18.48
2023-05-09T11:05:58.997Z,18.39
2023-05-09T11:08:30.871Z,18.31
2023-05-09T11:11:02.616Z,18.22
2023-05-09T11:13:36.481Z,18.16
2023-05-09T11:16:03.590Z,18.29
2023-05-09T11:18:33.988Z,18.17
2023-05-09T11:21:08.885Z,18.27
2023-05-09T11:23:36.172Z,18.33
2023-05-09T11:26:08.719Z,18.38
2023-05-09T11:28:37.797Z,18.42
2023-05-09T11:31:13.031Z,18.49
2023-05-09T11:33:41.759Z,18.46
2023-05-09T11:36:29.765Z,18.50
2023-05-09T11:39:04.897Z,18.54
2023-05-09T11:41:39.547Z,18.57
2023-05-09T11:44:20.851Z,18.63
2023-05-09T11:46:49.586Z,18.77
2023-05-09T11:49:17.387Z,18.91
2023-05-09T11:51:44.534Z,19.07
2023-05-09T11:54:13.790Z,19.19
2023-05-09T11:56:42.238Z,19.05
2023-05-09T11:59:10.658Z,19.21
2023-05-09T12:01:37.835Z,19.22
2023-05-09T12:04:07.181Z,19.07
2023-05-09T12:06:34.642Z,19.02
2023-05-09T12:09:01.925Z,18.96
2023-05-09T12:11:32.573Z,18.95
2023-05-09T12:13:59.884Z,19.00
2023-05-09T12:16:26.946Z,19.05
2023-05-09T12:18:54.552Z,19.13
2023-05-09T12:21:22.130Z,19.09
2023-05-09T12:23:51.683Z,18.95
2023-05-09T12:26:22.804Z,18.94
2023-05-09T12:28:50.892Z,19.11
2023-05-09T12:31:21.067Z,19.17
2023-05-09T12:33:48.454Z,19.55
2023-05-09T12:36:16.888Z,19.77
2023-05-09T12:38:56.814Z,19.45
2023-05-09T12:43:56.005Z,19.51
2023-05-09T12:46:23.297Z,19.79
2023-05-09T12:48:50.591Z,20.05
2023-05-09T12:51:21.878Z,19.89
2023-05-09T12:53:49.369Z,19.70
2023-05-09T12:56:23.642Z,19.78
2023-05-09T12:58:55.017Z,19.59
2023-05-09T13:01:27.970Z,19.56
2023-05-09T13:04:04.679Z,19.62
2023-05-09T13:06:32.515Z,19.64
2023-05-09T13:09:06.130Z,19.44
2023-05-09T13:11:33.805Z,19.51
2023-05-09T13:14:02.951Z,19.56
2023-05-09T13:16:30.278Z,19.49
2023-05-09T13:18:57.577Z,19.40
2023-05-09T13:21:24.738Z,19.21
2023-05-09T13:23:52.335Z,19.16
2023-05-09T13:26:19.816Z,19.08
2023-05-09T13:28:46.947Z,19.03
2023-05-09T13:31:14.486Z,18.91
2023-05-09T13:33:42.178Z,18.91
2023-05-09T13:36:09.510Z,18.65
2023-05-09T13:38:40.884Z,18.70
2023-05-09T13:41:09.020Z,18.73
2023-05-09T13:43:38.168Z,18.78
2023-05-09T13:46:05.569Z,18.61
2023-05-09T13:48:32.682Z,18.60
2023-05-09T13:51:01.296Z,18.65
2023-05-09T13:53:28.532Z,18.56
2023-05-09T13:55:55.510Z,18.50
2023-05-09T13:58:22.889Z,18.67
2023-05-09T14:00:50.394Z,18.88
2023-05-09T14:03:17.574Z,18.78
2023-05-09T14:05:44.700Z,18.92
2023-05-09T14:08:12.355Z,18.97
2023-05-09T14:10:39.784Z,19.08
2023-05-09T14:13:08.564Z,19.00
2023-05-09T14:15:36.155Z,18.77
2023-05-09T14:18:03.290Z,18.67
2023-05-09T14:20:30.408Z,18.72
2023-05-09T14:23:00.723Z,18.71
2023-05-09T14:25:27.970Z,18.63
2023-05-09T14:27:55.204Z,18.68
2023-05-09T14:30:23.203Z,18.72
2023-05-09T14:32:50.234Z,18.73
2023-05-09T14:35:17.406Z,18.80
2023-05-09T14:37:44.604Z,18.81
2023-05-09T14:40:12.402Z,18.78
2023-05-09T14:42:39.698Z,18.75
2023-05-09T14:45:07.818Z,18.81
2023-05-09T14:47:34.949Z,18.81
2023-05-09T14:50:02.271Z,18.67
2023-05-09T14:52:29.432Z,18.61
2023-05-09T14:54:56.593Z,18.63
2023-05-09T14:57:23.622Z,18.77
2023-05-09T14:59:50.689Z,18.87
2023-05-09T15:02:17.759Z,19.02
2023-05-09T15:04:45.146Z,19.02
2023-05-09T15:07:12.138Z,19.03
2023-05-09T15:09:39.357Z,19.01
2023-05-09T15:12:06.696Z,18.97
2023-05-09T15:14:33.780Z,18.96
2023-05-09T15:17:03.545Z,19.06
2023-05-09T15:19:34.246Z,19.10
2023-05-09T15:22:01.878Z,19.20
2023-05-09T15:24:28.885Z,19.25
2023-05-09T15:26:56.210Z,19.29
2023-05-09T15:29:23.301Z,19.35
2023-05-09T15:31:50.573Z,19.33
2023-05-09T15:34:17.649Z,19.27
2023-05-09T15:36:44.879Z,19.30
2023-05-09T15:39:11.921Z,19.25
2023-05-09T15:41:39.067Z,19.28
2023-05-09T15:44:06.886Z,19.26
2023-05-09T15:46:34.297Z,19.20
2023-05-09T15:49:01.362Z,19.17
2023-05-09T15:51:30.222Z,19.26
2023-05-09T15:53:57.220Z,19.33
2023-05-09T15:56:24.416Z,19.33
2023-05-09T15:58:51.435Z,19.36
2023-05-09T16:01:19.297Z,19.25
2023-05-09T16:03:46.549Z,19.14
2023-05-09T16:06:13.762Z,19.05
2023-05-09T16:08:40.796Z,18.95
2023-05-09T16:11:08.084Z,18.89
2023-05-09T16:13:36.079Z,18.82
2023-05-09T16:16:03.640Z,18.80
2023-05-09T16:18:30.900Z,18.84
2023-05-09T16:20:58.024Z,18.78
2023-05-09T16:23:26.160Z,18.70
2023-05-09T16:25:53.298Z,18.65
2023-05-09T16:28:23.636Z,18.62
2023-05-09T16:30:51.657Z,18.58
2023-05-09T16:33:18.727Z,18.51
2023-05-09T16:35:47.677Z,18.50
2023-05-09T16:38:14.888Z,18.48
2023-05-09T16:40:42.364Z,18.44
2023-05-09T16:43:09.666Z,18.45
2023-05-09T16:45:36.940Z,18.35
2023-05-09T16:48:04.186Z,18.33
2023-05-09T16:50:31.293Z,18.29
2023-05-09T16:52:58.477Z,18.29
2023-05-09T16:55:25.599Z,18.26
2023-05-09T16:57:52.662Z,18.23
2023-05-09T17:00:20.209Z,18.26
2023-05-09T17:02:47.390Z,18.21
2023-05-09T17:05:14.802Z,18.20
2023-05-09T17:07:42.016Z,18.20
2023-05-09T17:10:09.395Z,18.17
2023-05-09T17:12:38.885Z,18.11
2023-05-09T17:15:07.712Z,18.11
2023-05-09T17:17:35.889Z,18.12
2023-05-09T17:20:04.565Z,18.12
2023-05-09T17:22:31.756Z,18.07
2023-05-09T17:24:58.946Z,18.02
2023-05-09T17:27:27.240Z,18.00
2023-05-09T17:29:54.434Z,17.98
2023-05-09T17:32:21.661Z,17.98
2023-05-09T17:34:48.897Z,17.98
2023-05-09T17:37:17.410Z,18.00
2023-05-09T17:39:46.276Z,18.00
2023-05-09T17:42:13.390Z,17.99
2023-05-09T17:44:43.041Z,18.02
2023-05-09T17:47:12.767Z,18.00
2023-05-09T17:49:40.161Z,17.97
2023-05-09T17:52:07.461Z,17.92
2023-05-09T17:54:34.677Z,17.87
2023-05-09T17:57:02.351Z,17.86
2023-05-09T17:59:29.704Z,17.77
2023-05-09T18:01:56.893Z,17.78
2023-05-09T18:04:24.084Z,17.75
2023-05-09T18:06:51.314Z,17.71
2023-05-09T18:09:18.759Z,17.67
2023-05-09T18:11:45.905Z,17.67
2023-05-09T18:14:13.171Z,17.68
2023-05-09T18:16:40.252Z,17.67
2023-05-09T18:19:07.439Z,17.67
2023-05-09T18:21:35.882Z,17.57
2023-05-09T18:24:03.101Z,17.54
2023-05-09T18:26:30.565Z,17.52
2023-05-09T18:32:09.318Z,17.45
2023-05-09T18:34:36.839Z,17.42
2023-05-09T18:37:04.021Z,17.35
2023-05-09T18:39:31.213Z,17.34
2023-05-09T18:41:58.418Z,17.34
2023-05-09T18:44:25.557Z,17.31
2023-05-09T18:46:54.632Z,17.30
2023-05-09T18:49:22.706Z,17.26
2023-05-09T18:51:49.963Z,17.21
2023-05-09T18:54:18.092Z,17.16
2023-05-09T18:56:46.080Z,17.18
2023-05-09T18:59:16.341Z,17.13
2023-05-09T19:01:44.343Z,17.09
2023-05-09T19:04:11.897Z,17.07
2023-05-09T19:06:40.928Z,17.04
2023-05-09T19:09:08.362Z,17.05
2023-05-09T19:11:36.049Z,17.04
2023-05-09T19:14:03.900Z,17.02
2023-05-09T19:16:32.900Z,17.01
2023-05-09T19:19:01.084Z,16.97
2023-05-09T19:21:29.002Z,16.95
2023-05-09T19:23:56.353Z,16.93
2023-05-09T19:26:23.964Z,16.91
2023-05-09T19:28:51.187Z,16.90
2023-05-09T19:31:20.560Z,16.91
2023-05-09T19:33:48.284Z,16.89
2023-05-09T19:36:15.480Z,16.91
2023-05-09T19:38:42.838Z,16.95
2023-05-09T19:41:11.065Z,16.96
2023-05-09T19:43:38.671Z,16.93
2023-05-09T19:46:06.168Z,16.93
2023-05-09T19:48:35.636Z,16.91
2023-05-09T19:51:03.304Z,16.88
2023-05-09T19:53:30.506Z,16.83
2023-05-09T19:55:58.333Z,16.83
2023-05-09T19:58:25.909Z,16.81
2023-05-09T20:00:52.966Z,16.81
2023-05-09T20:03:20.344Z,16.82
2023-05-09T20:05:47.758Z,16.82
2023-05-09T20:08:15.120Z,16.82
2023-05-09T20:10:42.504Z,16.83
2023-05-09T20:13:09.753Z,16.84
2023-05-09T20:15:37.120Z,16.86
2023-05-09T20:18:07.423Z,16.90
2023-05-09T20:20:35.253Z,16.90
2023-05-09T20:23:02.999Z,16.92
2023-05-09T20:25:31.186Z,16.91
2023-05-09T20:27:58.976Z,16.92
2023-05-09T20:30:26.352Z,16.94
2023-05-09T20:32:54.635Z,16.96
2023-05-09T20:35:22.467Z,16.97
2023-05-09T20:37:49.999Z,16.99
2023-05-09T20:40:17.525Z,17.02
2023-05-09T20:42:44.835Z,17.03
2023-05-09T20:45:12.173Z,17.04
2023-05-09T20:47:40.072Z,17.01
2023-05-09T20:50:08.087Z,17.02
2023-05-09T20:52:35.759Z,17.02
2023-05-09T20:55:03.177Z,17.03
2023-05-09T20:57:30.620Z,17.02
2023-05-09T20:59:58.163Z,17.02
2023-05-09T21:02:25.805Z,17.01
2023-05-09T21:04:53.027Z,16.98
2023-05-09T21:07:20.494Z,16.94
2023-05-09T21:09:48.017Z,16.88
2023-05-09T21:12:15.036Z,16.86
2023-05-09T21:14:42.396Z,16.81
2023-05-09T21:17:09.745Z,16.79
2023-05-09T21:19:36.927Z,16.76
2023-05-09T21:22:04.056Z,16.72
2023-05-09T21:24:31.129Z,16.70
2023-05-09T21:26:58.287Z,16.71
2023-05-09T21:29:25.445Z,16.69
2023-05-09T21:31:52.594Z,16.64
2023-05-09T21:34:19.574Z,16.65
2023-05-09T21:36:46.735Z,16.62
2023-05-09T21:39:13.684Z,16.59
2023-05-09T21:41:42.976Z,16.58
2023-05-09T21:44:11.365Z,16.55
2023-05-09T21:46:38.809Z,16.54
2023-05-09T21:49:06.018Z,16.53
2023-05-09T21:51:34.689Z,16.52
2023-05-09T21:54:01.676Z,16.50
2023-05-09T21:56:29.936Z,16.45
2023-05-09T21:58:56.965Z,16.45
2023-05-09T22:01:24.196Z,16.44
2023-05-09T22:03:51.889Z,16.43
2023-05-09T22:06:19.204Z,16.44
2023-05-09T22:08:46.386Z,16.46
2023-05-09T22:11:14.767Z,16.46
2023-05-09T22:13:42.625Z,16.45
2023-05-09T22:16:09.876Z,16.45
2023-05-09T22:18:37.351Z,16.44
2023-05-09T22:21:04.592Z,16.40
2023-05-09T22:23:31.801Z,16.40
2023-05-09T22:25:58.763Z,16.38
2023-05-09T22:28:27.972Z,16.37
2023-05-09T22:30:54.980Z,16.37
2023-05-09T22:33:22.140Z,16.35
2023-05-09T22:35:50.252Z,16.32
2023-05-09T22:38:17.272Z,16.30
2023-05-09T22:40:44.510Z,16.28
2023-05-09T22:43:11.838Z,16.24
2023-05-09T22:45:39.013Z,16.23
2023-05-09T22:48:06.507Z,16.23
2023-05-09T22:50:33.752Z,16.24
2023-05-09T22:53:01.428Z,16.25
2023-05-09T22:55:28.696Z,16.27
2023-05-09T22:57:55.865Z,16.29
2023-05-09T23:00:23.065Z,16.31
2023-05-09T23:02:50.320Z,16.33
2023-05-09T23:05:17.737Z,16.33
2023-05-09T23:07:44.863Z,16.33
2023-05-09T23:10:12.427Z,16.32
2023-05-09T23:12:39.462Z,16.31
2023-05-09T23:15:07.554Z,16.29
2023-05-09T23:17:35.093Z,16.28
2023-05-09T23:20:04.038Z,16.24
2023-05-09T23:22:31.518Z,16.18
2023-05-09T23:25:00.948Z,16.15
2023-05-09T23:27:28.538Z,16.09
2023-05-09T23:29:56.996Z,16.04
2023-05-09T23:32:24.079Z,15.98
2023-05-09T23:34:51.317Z,15.93
2023-05-09T23:37:18.837Z,15.93
2023-05-09T23:39:45.930Z,15.93
2023-05-09T23:42:12.910Z,15.88
2023-05-09T23:44:40.515Z,15.85
2023-05-09T23:47:07.591Z,15.84
2023-05-09T23:49:34.737Z,15.81
2023-05-09T23:52:01.764Z,15.80
2023-05-09T23:54:28.939Z,15.81
2023-05-09T23:56:57.469Z,15.82
2023-05-09T23:59:24.610Z,15.82
